Tug "trevor" — WCP6921 — position and weather

sailwx.info

Track history (hours):
 
Tides and Currents Weather Stations Pressure Air Temp Water Temp Dewpoint Dewpoint Depression Visibility Wind Speed Wind Dir Waves Ship Positions

Tug "trevor"

More information available from US FCC via Universal Licensing System and Coast Guard Vessel Documentation Center.

Last reported at 2014-Jul-25 10:34 UTC. Time now 2014-Jul-25 11:23 UTC.
Position N 27°37' W 082°47'.

Length 21 m; draft 2.9 m.

Type: Towing. MMSI: 366643140.

Date/timePositionNaut miles runAvg speedWind from/ knotsBaromVisibWave heightAir tempDewpointWater temp
2014-Jul-25 10:34N 27°37' W 082°47'0 0.0
2014-Jul-25 09:29N 27°37' W 082°47'0 0.0
2014-Jul-25 08:34N 27°37' W 082°47'0 0.0
2014-Jul-25 07:34N 27°37' W 082°47'0 0.0
2014-Jul-25 06:34N 27°37' W 082°47'0 0.0
2014-Jul-25 05:34N 27°37' W 082°47'0 0.0
2014-Jul-25 04:34N 27°37' W 082°47'0 0.0
2014-Jul-25 03:33N 27°37' W 082°47'0 0.0
2014-Jul-25 02:34N 27°37' W 082°47'0 0.0
2014-Jul-25 01:33N 27°37' W 082°47'0 0.0
2014-Jul-25 00:32N 27°37' W 082°47'0 0.0
2014-Jul-24 23:26N 27°37' W 082°47'0 0.0
2014-Jul-24 22:34N 27°37' W 082°47'0 0.0
2014-Jul-24 21:33N 27°37' W 082°47'0 0.0
2014-Jul-24 20:32N 27°37' W 082°47'0 0.0
2014-Jul-24 19:34N 27°37' W 082°47'0 0.3
2014-Jul-24 18:33N 27°37' W 082°47'12 1.4
2014-Jul-24 10:14N 27°38' W 082°34'0 0.0
2014-Jul-24 08:12N 27°38' W 082°34'0 0.0
2014-Jul-24 07:32N 27°38' W 082°34'3 3.0
2014-Jul-24 06:33N 27°39' W 082°37'5 4.7
2014-Jul-24 05:34N 27°37' W 082°41'4 4.1
2014-Jul-24 04:34N 27°37' W 082°46'1 0.7
2014-Jul-24 03:33N 27°37' W 082°47'0 0.0
2014-Jul-24 02:33N 27°37' W 082°47'0 0.0
2014-Jul-24 01:34N 27°37' W 082°47'0 0.0
2014-Jul-24 00:34N 27°37' W 082°47'0 0.0
2014-Jul-23 23:33N 27°37' W 082°47'0 0.0
2014-Jul-23 22:34N 27°37' W 082°47'0 0.0
2014-Jul-23 21:34N 27°37' W 082°47'0 0.2
2014-Jul-23 20:33N 27°37' W 082°47'0 0.2
2014-Jul-23 19:34N 27°37' W 082°47'0 0.0
2014-Jul-23 18:34N 27°37' W 082°47'0 0.1
2014-Jul-23 17:34N 27°37' W 082°47'0 0.2
2014-Jul-23 16:33N 27°37' W 082°47'0 0.2
2014-Jul-23 15:33N 27°37' W 082°47'0 0.0
2014-Jul-23 14:33N 27°37' W 082°47'0 0.0
2014-Jul-23 13:34N 27°37' W 082°47'0 0.0
2014-Jul-23 12:34N 27°37' W 082°47'0 0.0
2014-Jul-23 11:33N 27°37' W 082°47'0 0.0
2014-Jul-23 10:34N 27°37' W 082°47'0 0.0
2014-Jul-23 09:33N 27°37' W 082°47'0 0.0
2014-Jul-23 08:34N 27°37' W 082°47'0 0.0
2014-Jul-23 07:34N 27°37' W 082°47'0 0.0
2014-Jul-23 06:34N 27°37' W 082°47'0 0.0
2014-Jul-23 05:34N 27°37' W 082°47'0 0.0
2014-Jul-23 04:34N 27°37' W 082°47'0 0.0
2014-Jul-23 03:33N 27°37' W 082°47'0 0.0
2014-Jul-23 02:34N 27°37' W 082°47'0 0.0
2014-Jul-23 01:33N 27°37' W 082°47'0 0.0
2014-Jul-23 00:23N 27°37' W 082°47'0 0.0
2014-Jul-22 23:33N 27°37' W 082°47'0 0.0
2014-Jul-22 22:34N 27°37' W 082°47'0 0.0
2014-Jul-22 21:33N 27°37' W 082°47'0 0.0
2014-Jul-22 20:33N 27°37' W 082°47'0 0.0
2014-Jul-22 19:33N 27°37' W 082°47'0 0.0
2014-Jul-22 18:34N 27°37' W 082°47'0 0.0
2014-Jul-22 17:34N 27°37' W 082°47'0 0.0
2014-Jul-22 16:34N 27°37' W 082°47'0 0.0
2014-Jul-22 15:34N 27°37' W 082°47'0 0.0
2014-Jul-22 14:33N 27°37' W 082°47'0 0.1
2014-Jul-22 13:34N 27°37' W 082°47'0 0.1
2014-Jul-22 12:33N 27°37' W 082°47'0 0.0
2014-Jul-22 11:34N 27°37' W 082°47'0 0.0
2014-Jul-22 10:34N 27°37' W 082°47'0 0.0
2014-Jul-22 09:34N 27°37' W 082°47'0 0.0
2014-Jul-22 08:33N 27°37' W 082°47'0 0.0
2014-Jul-22 07:34N 27°37' W 082°47'0 0.0
2014-Jul-22 06:34N 27°37' W 082°47'0 0.0
2014-Jul-22 05:34N 27°37' W 082°47'0 0.0
2014-Jul-22 04:33N 27°37' W 082°47'0 0.0
2014-Jul-22 03:33N 27°37' W 082°47'0 0.1
2014-Jul-22 02:34N 27°37' W 082°47'0 0.1
2014-Jul-22 01:34N 27°37' W 082°47'0 0.0
2014-Jul-22 00:34N 27°37' W 082°47'0 0.0
2014-Jul-21 23:34N 27°37' W 082°47'0 0.0
2014-Jul-21 22:33N 27°37' W 082°47'0 0.0
2014-Jul-21 21:34N 27°37' W 082°47'0 0.0
2014-Jul-21 20:34N 27°37' W 082°47'0 1.1
2014-Jul-21 20:18N 27°37' W 082°47'0 0.4
2014-Jul-21 19:33N 27°37' W 082°47'0 0.0
2014-Jul-21 18:34N 27°37' W 082°47'0 0.0
2014-Jul-21 17:34N 27°37' W 082°47'0 0.0
2014-Jul-21 16:34N 27°37' W 082°47'0 0.0
2014-Jul-21 15:33N 27°37' W 082°47'0 0.0
2014-Jul-21 14:33N 27°37' W 082°47'0 0.3
2014-Jul-21 13:34N 27°37' W 082°47'0 0.4
2014-Jul-21 12:34N 27°37' W 082°47'0 0.0
2014-Jul-21 11:33N 27°37' W 082°47'0 0.0
2014-Jul-21 10:30N 27°37' W 082°47'0 0.0
2014-Jul-21 09:33N 27°37' W 082°47'0 0.0
2014-Jul-21 08:33N 27°37' W 082°47'0 0.0
2014-Jul-21 07:34N 27°37' W 082°47'0 0.0
2014-Jul-21 06:34N 27°37' W 082°47'0 0.0
2014-Jul-21 05:33N 27°37' W 082°47'0 0.0
2014-Jul-21 04:34N 27°37' W 082°47'0 0.0
2014-Jul-21 03:34N 27°37' W 082°47'0 0.0
2014-Jul-21 02:34N 27°37' W 082°47'0 0.0
2014-Jul-21 01:34N 27°37' W 082°47'0 0.0
2014-Jul-21 00:34N 27°37' W 082°47'0 0.0
2014-Jul-20 23:34N 27°37' W 082°47'0 0.0
2014-Jul-20 22:30N 27°37' W 082°47'0 0.0
2014-Jul-20 21:31N 27°37' W 082°47'0 0.0
2014-Jul-20 20:33N 27°37' W 082°47'2 1.9
2014-Jul-20 19:33N 27°37' W 082°49'2 1.9
2014-Jul-20 18:34N 27°37' W 082°47'0 0.0
2014-Jul-20 17:34N 27°37' W 082°47'0 0.0
2014-Jul-20 16:34N 27°37' W 082°47'0 0.0
2014-Jul-20 15:34N 27°37' W 082°47'0 0.0
2014-Jul-20 14:34N 27°37' W 082°47'0 0.3
2014-Jul-20 13:33N 27°37' W 082°47'0 0.1
2014-Jul-20 12:34N 27°37' W 082°47'0 0.1
2014-Jul-20 11:29N 27°37' W 082°47'0 0.1
2014-Jul-20 10:34N 27°37' W 082°47'0 0.2
2014-Jul-20 09:33N 27°37' W 082°47'0 0.0
2014-Jul-20 08:33N 27°37' W 082°47'0 0.0
2014-Jul-20 07:34N 27°37' W 082°47'0 0.0
2014-Jul-20 06:33N 27°37' W 082°47'0 0.0
2014-Jul-20 05:30N 27°37' W 082°47'0 0.0
2014-Jul-20 04:33N 27°37' W 082°47'0 0.0
2014-Jul-20 03:25N 27°37' W 082°47'0 0.0
2014-Jul-20 02:30N 27°37' W 082°47'0 0.0
2014-Jul-20 01:34N 27°37' W 082°47'0 0.0
2014-Jul-20 00:26N 27°37' W 082°47'0 0.0
2014-Jul-19 23:31N 27°37' W 082°47'0 0.0
2014-Jul-19 22:29N 27°37' W 082°47'0 0.0
2014-Jul-19 21:33N 27°37' W 082°47'0 0.0
2014-Jul-19 20:33N 27°37' W 082°47'0 0.0
2014-Jul-19 19:33N 27°37' W 082°47'0 0.0
2014-Jul-19 18:33N 27°37' W 082°47'0 0.0
2014-Jul-19 17:34N 27°37' W 082°47'0 0.0
2014-Jul-19 16:33N 27°37' W 082°47'0 0.0
2014-Jul-19 15:34N 27°37' W 082°47'0 0.0
2014-Jul-19 14:33N 27°37' W 082°47'0 0.0
2014-Jul-19 13:34N 27°37' W 082°47'0 0.0
2014-Jul-19 12:33N 27°37' W 082°47'0 0.0
2014-Jul-19 11:33N 27°37' W 082°47'0 0.0
2014-Jul-19 10:34N 27°37' W 082°47'0 0.0
2014-Jul-19 09:34N 27°37' W 082°47'0 0.0
2014-Jul-19 08:33N 27°37' W 082°47'0 0.0
2014-Jul-19 07:33N 27°37' W 082°47'0 0.0
2014-Jul-19 06:34N 27°37' W 082°47'0 0.0
2014-Jul-19 05:34N 27°37' W 082°47'0 0.0
2014-Jul-19 04:33N 27°37' W 082°47'0 0.0
2014-Jul-19 03:33N 27°37' W 082°47'0 0.0
2014-Jul-19 02:33N 27°37' W 082°47'0 0.0
2014-Jul-19 01:33N 27°37' W 082°47'0 0.1
2014-Jul-19 00:34N 27°37' W 082°47'0 0.1
2014-Jul-18 23:33N 27°37' W 082°47'0 0.1
2014-Jul-18 22:30N 27°37' W 082°47'3 3.0
2014-Jul-18 21:23N 27°37' W 082°43'0 0.0
2014-Jul-18 20:33N 27°37' W 082°43'3 3.2
2014-Jul-18 19:33N 27°37' W 082°47'3 2.6
2014-Jul-18 18:31N 27°36' W 082°44'6 5.9
2014-Jul-18 17:34N 27°37' W 082°50'7 6.6
2014-Jul-18 16:34N 27°44' W 082°49'3 2.5
2014-Jul-18 15:33N 27°46' W 082°48'0 0.0
2014-Jul-18 14:29N 27°46' W 082°48'0 0.0
2014-Jul-18 13:33N 27°46' W 082°48'0 0.0
2014-Jul-18 12:34N 27°46' W 082°48'0 0.1
2014-Jul-18 11:34N 27°46' W 082°48'0 0.3
2014-Jul-18 10:34N 27°46' W 082°48'2 1.9
2014-Jul-18 09:33N 27°44' W 082°48'5 4.7
2014-Jul-18 08:33N 27°40' W 082°50'4 3.7
2014-Jul-18 07:33N 27°37' W 082°47'3 3.1
2014-Jul-18 06:33N 27°37' W 082°43'0 0.0
2014-Jul-18 05:34N 27°37' W 082°43'0 0.0
2014-Jul-18 04:34N 27°37' W 082°43'0 0.0
2014-Jul-18 03:34N 27°37' W 082°43'0 0.0
2014-Jul-18 02:34N 27°37' W 082°43'0 0.0
2014-Jul-18 01:34N 27°37' W 082°43'0 0.0
2014-Jul-18 00:33N 27°37' W 082°43'0 0.0
2014-Jul-17 23:32N 27°37' W 082°43'0 0.1
2014-Jul-17 22:33N 27°36' W 082°43'0 0.1
2014-Jul-17 21:33N 27°37' W 082°43'0 0.0
2014-Jul-17 20:33N 27°37' W 082°43'0 0.0
2014-Jul-17 19:34N 27°37' W 082°43'0 0.0
2014-Jul-17 18:34N 27°37' W 082°43'0 0.4
2014-Jul-17 17:30N 27°36' W 082°44'3 2.8
2014-Jul-17 16:33N 27°37' W 082°47'3 3.0
2014-Jul-17 15:34N 27°37' W 082°43'0 0.0
2014-Jul-17 14:34N 27°37' W 082°43'0 0.0
2014-Jul-17 13:34N 27°37' W 082°43'0 0.1
2014-Jul-17 12:33N 27°37' W 082°43'3 3.3
2014-Jul-17 11:34N 27°37' W 082°47'2 1.7
2014-Jul-17 10:34N 27°37' W 082°49'2 1.8
2014-Jul-17 09:33N 27°37' W 082°47'0 0.0
2014-Jul-17 08:33N 27°37' W 082°47'0 0.0
2014-Jul-17 07:34N 27°37' W 082°47'0 0.0
2014-Jul-17 06:33N 27°37' W 082°47'0 0.0
2014-Jul-17 05:33N 27°37' W 082°47'0 0.0
2014-Jul-17 04:33N 27°37' W 082°47'0 0.0
2014-Jul-17 03:33N 27°37' W 082°47'0 0.0
2014-Jul-17 02:34N 27°37' W 082°47'0 0.0
2014-Jul-17 00:18N 27°37' W 082°47'0 0.0
2014-Jul-16 23:34N 27°37' W 082°47'1 0.9
2014-Jul-16 22:33N 27°37' W 082°46'1 0.9
2014-Jul-16 21:34N 27°37' W 082°47'3 2.7
2014-Jul-16 20:34N 27°36' W 082°44'3 2.7
2014-Jul-16 19:34N 27°37' W 082°47'0 0.0
2014-Jul-16 18:33N 27°37' W 082°47'1 0.5
2014-Jul-16 17:34N 27°37' W 082°46'0 0.4
2014-Jul-16 16:33N 27°37' W 082°47'0 0.1
2014-Jul-16 15:34N 27°37' W 082°47'0 0.0
2014-Jul-16 13:34N 27°37' W 082°47'0 0.0
2014-Jul-16 12:30N 27°37' W 082°47'0 0.1
2014-Jul-16 11:34N 27°37' W 082°47'0 0.1
2014-Jul-16 10:34N 27°37' W 082°47'0 0.1
2014-Jul-16 09:34N 27°37' W 082°47'0 0.1
2014-Jul-16 08:34N 27°37' W 082°47'0 0.0
2014-Jul-16 07:33N 27°37' W 082°47'0 0.0
2014-Jul-16 06:34N 27°37' W 082°47'0 0.0
2014-Jul-16 05:34N 27°37' W 082°47'0 0.1
2014-Jul-16 04:33N 27°37' W 082°47'0 0.1
2014-Jul-16 03:34N 27°37' W 082°47'0 0.0
2014-Jul-16 02:33N 27°37' W 082°47'3 3.0
2014-Jul-16 01:30N 27°36' W 082°43'2 2.4
2014-Jul-16 00:33N 27°37' W 082°46'1 0.8
2014-Jul-15 23:34N 27°37' W 082°47'0 0.0
2014-Jul-15 22:33N 27°37' W 082°47'0 0.0
2014-Jul-15 21:34N 27°37' W 082°47'0 0.0
2014-Jul-15 20:33N 27°37' W 082°47'0 0.0
2014-Jul-15 19:34N 27°37' W 082°47'2 2.2
2014-Jul-15 18:33N 27°36' W 082°44'4 3.8
2014-Jul-15 17:32N 27°37' W 082°40'6 4.0
2014-Jul-15 16:05N 27°38' W 082°34'0 0.0
2014-Jul-15 15:15N 27°38' W 082°34'0 0.0
2014-Jul-15 14:32N 27°38' W 082°34'0 0.0
2014-Jul-15 13:21N 27°38' W 082°34'2 2.0
2014-Jul-15 12:33N 27°39' W 082°35'6 5.6
2014-Jul-15 11:33N 27°37' W 082°41'2 2.1
2014-Jul-15 10:34N 27°37' W 082°43'  
Track history (hours):
 
Tides and Currents Weather Stations Pressure Air Temp Water Temp Dewpoint Dewpoint Depression Visibility Wind Speed Wind Dir Waves Ship Positions

Tug "trevor"

More information available from US FCC via Universal Licensing System and Coast Guard Vessel Documentation Center.

Last reported at 2014-Jul-25 10:34 UTC. Time now 2014-Jul-25 11:23 UTC.
Position N 27°37' W 082°47'.

Length 21 m; draft 2.9 m.

Type: Towing. MMSI: 366643140.

Date/timePositionNaut miles runAvg speedWind from/ knotsBaromVisibWave heightAir tempDewpointWater temp
2014-Jul-25 10:34N 27°37' W 082°47'0 0.0
2014-Jul-25 09:29N 27°37' W 082°47'0 0.0
2014-Jul-25 08:34N 27°37' W 082°47'0 0.0
2014-Jul-25 07:34N 27°37' W 082°47'0 0.0
2014-Jul-25 06:34N 27°37' W 082°47'0 0.0
2014-Jul-25 05:34N 27°37' W 082°47'0 0.0
2014-Jul-25 04:34N 27°37' W 082°47'0 0.0
2014-Jul-25 03:33N 27°37' W 082°47'0 0.0
2014-Jul-25 02:34N 27°37' W 082°47'0 0.0
2014-Jul-25 01:33N 27°37' W 082°47'0 0.0
2014-Jul-25 00:32N 27°37' W 082°47'0 0.0
2014-Jul-24 23:26N 27°37' W 082°47'0 0.0
2014-Jul-24 22:34N 27°37' W 082°47'0 0.0
2014-Jul-24 21:33N 27°37' W 082°47'0 0.0
2014-Jul-24 20:32N 27°37' W 082°47'0 0.0
2014-Jul-24 19:34N 27°37' W 082°47'0 0.3
2014-Jul-24 18:33N 27°37' W 082°47'12 1.4
2014-Jul-24 10:14N 27°38' W 082°34'0 0.0
2014-Jul-24 08:12N 27°38' W 082°34'0 0.0
2014-Jul-24 07:32N 27°38' W 082°34'3 3.0
2014-Jul-24 06:33N 27°39' W 082°37'5 4.7
2014-Jul-24 05:34N 27°37' W 082°41'4 4.1
2014-Jul-24 04:34N 27°37' W 082°46'1 0.7
2014-Jul-24 03:33N 27°37' W 082°47'0 0.0
2014-Jul-24 02:33N 27°37' W 082°47'0 0.0
2014-Jul-24 01:34N 27°37' W 082°47'0 0.0
2014-Jul-24 00:34N 27°37' W 082°47'0 0.0
2014-Jul-23 23:33N 27°37' W 082°47'0 0.0
2014-Jul-23 22:34N 27°37' W 082°47'0 0.0
2014-Jul-23 21:34N 27°37' W 082°47'0 0.2
2014-Jul-23 20:33N 27°37' W 082°47'0 0.2
2014-Jul-23 19:34N 27°37' W 082°47'0 0.0
2014-Jul-23 18:34N 27°37' W 082°47'0 0.1
2014-Jul-23 17:34N 27°37' W 082°47'0 0.2
2014-Jul-23 16:33N 27°37' W 082°47'0 0.2
2014-Jul-23 15:33N 27°37' W 082°47'0 0.0
2014-Jul-23 14:33N 27°37' W 082°47'0 0.0
2014-Jul-23 13:34N 27°37' W 082°47'0 0.0
2014-Jul-23 12:34N 27°37' W 082°47'0 0.0
2014-Jul-23 11:33N 27°37' W 082°47'0 0.0
2014-Jul-23 10:34N 27°37' W 082°47'0 0.0
2014-Jul-23 09:33N 27°37' W 082°47'0 0.0
2014-Jul-23 08:34N 27°37' W 082°47'0 0.0
2014-Jul-23 07:34N 27°37' W 082°47'0 0.0
2014-Jul-23 06:34N 27°37' W 082°47'0 0.0
2014-Jul-23 05:34N 27°37' W 082°47'0 0.0
2014-Jul-23 04:34N 27°37' W 082°47'0 0.0
2014-Jul-23 03:33N 27°37' W 082°47'0 0.0
2014-Jul-23 02:34N 27°37' W 082°47'0 0.0
2014-Jul-23 01:33N 27°37' W 082°47'0 0.0
2014-Jul-23 00:23N 27°37' W 082°47'0 0.0
2014-Jul-22 23:33N 27°37' W 082°47'0 0.0
2014-Jul-22 22:34N 27°37' W 082°47'0 0.0
2014-Jul-22 21:33N 27°37' W 082°47'0 0.0
2014-Jul-22 20:33N 27°37' W 082°47'0 0.0
2014-Jul-22 19:33N 27°37' W 082°47'0 0.0
2014-Jul-22 18:34N 27°37' W 082°47'0 0.0
2014-Jul-22 17:34N 27°37' W 082°47'0 0.0
2014-Jul-22 16:34N 27°37' W 082°47'0 0.0
2014-Jul-22 15:34N 27°37' W 082°47'0 0.0
2014-Jul-22 14:33N 27°37' W 082°47'0 0.1
2014-Jul-22 13:34N 27°37' W 082°47'0 0.1
2014-Jul-22 12:33N 27°37' W 082°47'0 0.0
2014-Jul-22 11:34N 27°37' W 082°47'0 0.0
2014-Jul-22 10:34N 27°37' W 082°47'0 0.0
2014-Jul-22 09:34N 27°37' W 082°47'0 0.0
2014-Jul-22 08:33N 27°37' W 082°47'0 0.0
2014-Jul-22 07:34N 27°37' W 082°47'0 0.0
2014-Jul-22 06:34N 27°37' W 082°47'0 0.0
2014-Jul-22 05:34N 27°37' W 082°47'0 0.0
2014-Jul-22 04:33N 27°37' W 082°47'0 0.0
2014-Jul-22 03:33N 27°37' W 082°47'0 0.1
2014-Jul-22 02:34N 27°37' W 082°47'0 0.1
2014-Jul-22 01:34N 27°37' W 082°47'0 0.0
2014-Jul-22 00:34N 27°37' W 082°47'0 0.0
2014-Jul-21 23:34N 27°37' W 082°47'0 0.0
2014-Jul-21 22:33N 27°37' W 082°47'0 0.0
2014-Jul-21 21:34N 27°37' W 082°47'0 0.0
2014-Jul-21 20:34N 27°37' W 082°47'0 1.1
2014-Jul-21 20:18N 27°37' W 082°47'0 0.4
2014-Jul-21 19:33N 27°37' W 082°47'0 0.0
2014-Jul-21 18:34N 27°37' W 082°47'0 0.0
2014-Jul-21 17:34N 27°37' W 082°47'0 0.0
2014-Jul-21 16:34N 27°37' W 082°47'0 0.0
2014-Jul-21 15:33N 27°37' W 082°47'0 0.0
2014-Jul-21 14:33N 27°37' W 082°47'0 0.3
2014-Jul-21 13:34N 27°37' W 082°47'0 0.4
2014-Jul-21 12:34N 27°37' W 082°47'0 0.0
2014-Jul-21 11:33N 27°37' W 082°47'0 0.0
2014-Jul-21 10:30N 27°37' W 082°47'0 0.0
2014-Jul-21 09:33N 27°37' W 082°47'0 0.0
2014-Jul-21 08:33N 27°37' W 082°47'0 0.0
2014-Jul-21 07:34N 27°37' W 082°47'0 0.0
2014-Jul-21 06:34N 27°37' W 082°47'0 0.0
2014-Jul-21 05:33N 27°37' W 082°47'0 0.0
2014-Jul-21 04:34N 27°37' W 082°47'0 0.0
2014-Jul-21 03:34N 27°37' W 082°47'0 0.0
2014-Jul-21 02:34N 27°37' W 082°47'0 0.0
2014-Jul-21 01:34N 27°37' W 082°47'0 0.0
2014-Jul-21 00:34N 27°37' W 082°47'0 0.0
2014-Jul-20 23:34N 27°37' W 082°47'0 0.0
2014-Jul-20 22:30N 27°37' W 082°47'0 0.0
2014-Jul-20 21:31N 27°37' W 082°47'0 0.0
2014-Jul-20 20:33N 27°37' W 082°47'2 1.9
2014-Jul-20 19:33N 27°37' W 082°49'2 1.9
2014-Jul-20 18:34N 27°37' W 082°47'0 0.0
2014-Jul-20 17:34N 27°37' W 082°47'0 0.0
2014-Jul-20 16:34N 27°37' W 082°47'0 0.0
2014-Jul-20 15:34N 27°37' W 082°47'0 0.0
2014-Jul-20 14:34N 27°37' W 082°47'0 0.3
2014-Jul-20 13:33N 27°37' W 082°47'0 0.1
2014-Jul-20 12:34N 27°37' W 082°47'0 0.1
2014-Jul-20 11:29N 27°37' W 082°47'0 0.1
2014-Jul-20 10:34N 27°37' W 082°47'0 0.2
2014-Jul-20 09:33N 27°37' W 082°47'0 0.0
2014-Jul-20 08:33N 27°37' W 082°47'0 0.0
2014-Jul-20 07:34N 27°37' W 082°47'0 0.0
2014-Jul-20 06:33N 27°37' W 082°47'0 0.0
2014-Jul-20 05:30N 27°37' W 082°47'0 0.0
2014-Jul-20 04:33N 27°37' W 082°47'0 0.0
2014-Jul-20 03:25N 27°37' W 082°47'0 0.0
2014-Jul-20 02:30N 27°37' W 082°47'0 0.0
2014-Jul-20 01:34N 27°37' W 082°47'0 0.0
2014-Jul-20 00:26N 27°37' W 082°47'0 0.0
2014-Jul-19 23:31N 27°37' W 082°47'0 0.0
2014-Jul-19 22:29N 27°37' W 082°47'0 0.0
2014-Jul-19 21:33N 27°37' W 082°47'0 0.0
2014-Jul-19 20:33N 27°37' W 082°47'0 0.0
2014-Jul-19 19:33N 27°37' W 082°47'0 0.0
2014-Jul-19 18:33N 27°37' W 082°47'0 0.0
2014-Jul-19 17:34N 27°37' W 082°47'0 0.0
2014-Jul-19 16:33N 27°37' W 082°47'0 0.0
2014-Jul-19 15:34N 27°37' W 082°47'0 0.0
2014-Jul-19 14:33N 27°37' W 082°47'0 0.0
2014-Jul-19 13:34N 27°37' W 082°47'0 0.0
2014-Jul-19 12:33N 27°37' W 082°47'0 0.0
2014-Jul-19 11:33N 27°37' W 082°47'0 0.0
2014-Jul-19 10:34N 27°37' W 082°47'0 0.0
2014-Jul-19 09:34N 27°37' W 082°47'0 0.0
2014-Jul-19 08:33N 27°37' W 082°47'0 0.0
2014-Jul-19 07:33N 27°37' W 082°47'0 0.0
2014-Jul-19 06:34N 27°37' W 082°47'0 0.0
2014-Jul-19 05:34N 27°37' W 082°47'0 0.0
2014-Jul-19 04:33N 27°37' W 082°47'0 0.0
2014-Jul-19 03:33N 27°37' W 082°47'0 0.0
2014-Jul-19 02:33N 27°37' W 082°47'0 0.0
2014-Jul-19 01:33N 27°37' W 082°47'0 0.1
2014-Jul-19 00:34N 27°37' W 082°47'0 0.1
2014-Jul-18 23:33N 27°37' W 082°47'0 0.1
2014-Jul-18 22:30N 27°37' W 082°47'3 3.0
2014-Jul-18 21:23N 27°37' W 082°43'0 0.0
2014-Jul-18 20:33N 27°37' W 082°43'3 3.2
2014-Jul-18 19:33N 27°37' W 082°47'3 2.6
2014-Jul-18 18:31N 27°36' W 082°44'6 5.9
2014-Jul-18 17:34N 27°37' W 082°50'7 6.6
2014-Jul-18 16:34N 27°44' W 082°49'3 2.5
2014-Jul-18 15:33N 27°46' W 082°48'0 0.0
2014-Jul-18 14:29N 27°46' W 082°48'0 0.0
2014-Jul-18 13:33N 27°46' W 082°48'0 0.0
2014-Jul-18 12:34N 27°46' W 082°48'0 0.1
2014-Jul-18 11:34N 27°46' W 082°48'0 0.3
2014-Jul-18 10:34N 27°46' W 082°48'2 1.9
2014-Jul-18 09:33N 27°44' W 082°48'5 4.7
2014-Jul-18 08:33N 27°40' W 082°50'4 3.7
2014-Jul-18 07:33N 27°37' W 082°47'3 3.1
2014-Jul-18 06:33N 27°37' W 082°43'0 0.0
2014-Jul-18 05:34N 27°37' W 082°43'0 0.0
2014-Jul-18 04:34N 27°37' W 082°43'0 0.0
2014-Jul-18 03:34N 27°37' W 082°43'0 0.0
2014-Jul-18 02:34N 27°37' W 082°43'0 0.0
2014-Jul-18 01:34N 27°37' W 082°43'0 0.0
2014-Jul-18 00:33N 27°37' W 082°43'0 0.0
2014-Jul-17 23:32N 27°37' W 082°43'0 0.1
2014-Jul-17 22:33N 27°36' W 082°43'0 0.1
2014-Jul-17 21:33N 27°37' W 082°43'0 0.0
2014-Jul-17 20:33N 27°37' W 082°43'0 0.0
2014-Jul-17 19:34N 27°37' W 082°43'0 0.0
2014-Jul-17 18:34N 27°37' W 082°43'0 0.4
2014-Jul-17 17:30N 27°36' W 082°44'3 2.8
2014-Jul-17 16:33N 27°37' W 082°47'3 3.0
2014-Jul-17 15:34N 27°37' W 082°43'0 0.0
2014-Jul-17 14:34N 27°37' W 082°43'0 0.0
2014-Jul-17 13:34N 27°37' W 082°43'0 0.1
2014-Jul-17 12:33N 27°37' W 082°43'3 3.3
2014-Jul-17 11:34N 27°37' W 082°47'2 1.7
2014-Jul-17 10:34N 27°37' W 082°49'2 1.8
2014-Jul-17 09:33N 27°37' W 082°47'0 0.0
2014-Jul-17 08:33N 27°37' W 082°47'0 0.0
2014-Jul-17 07:34N 27°37' W 082°47'0 0.0
2014-Jul-17 06:33N 27°37' W 082°47'0 0.0
2014-Jul-17 05:33N 27°37' W 082°47'0 0.0
2014-Jul-17 04:33N 27°37' W 082°47'0 0.0
2014-Jul-17 03:33N 27°37' W 082°47'0 0.0
2014-Jul-17 02:34N 27°37' W 082°47'0 0.0
2014-Jul-17 00:18N 27°37' W 082°47'0 0.0
2014-Jul-16 23:34N 27°37' W 082°47'1 0.9
2014-Jul-16 22:33N 27°37' W 082°46'1 0.9
2014-Jul-16 21:34N 27°37' W 082°47'3 2.7
2014-Jul-16 20:34N 27°36' W 082°44'3 2.7
2014-Jul-16 19:34N 27°37' W 082°47'0 0.0
2014-Jul-16 18:33N 27°37' W 082°47'1 0.5
2014-Jul-16 17:34N 27°37' W 082°46'0 0.4
2014-Jul-16 16:33N 27°37' W 082°47'0 0.1
2014-Jul-16 15:34N 27°37' W 082°47'0 0.0
2014-Jul-16 13:34N 27°37' W 082°47'0 0.0
2014-Jul-16 12:30N 27°37' W 082°47'0 0.1
2014-Jul-16 11:34N 27°37' W 082°47'0 0.1
2014-Jul-16 10:34N 27°37' W 082°47'0 0.1
2014-Jul-16 09:34N 27°37' W 082°47'0 0.1
2014-Jul-16 08:34N 27°37' W 082°47'0 0.0
2014-Jul-16 07:33N 27°37' W 082°47'0 0.0
2014-Jul-16 06:34N 27°37' W 082°47'0 0.0
2014-Jul-16 05:34N 27°37' W 082°47'0 0.1
2014-Jul-16 04:33N 27°37' W 082°47'0 0.1
2014-Jul-16 03:34N 27°37' W 082°47'0 0.0
2014-Jul-16 02:33N 27°37' W 082°47'3 3.0
2014-Jul-16 01:30N 27°36' W 082°43'2 2.4
2014-Jul-16 00:33N 27°37' W 082°46'1 0.8
2014-Jul-15 23:34N 27°37' W 082°47'0 0.0
2014-Jul-15 22:33N 27°37' W 082°47'0 0.0
2014-Jul-15 21:34N 27°37' W 082°47'0 0.0
2014-Jul-15 20:33N 27°37' W 082°47'0 0.0
2014-Jul-15 19:34N 27°37' W 082°47'2 2.2
2014-Jul-15 18:33N 27°36' W 082°44'4 3.8
2014-Jul-15 17:32N 27°37' W 082°40'6 4.0
2014-Jul-15 16:05N 27°38' W 082°34'0 0.0
2014-Jul-15 15:15N 27°38' W 082°34'0 0.0
2014-Jul-15 14:32N 27°38' W 082°34'0 0.0
2014-Jul-15 13:21N 27°38' W 082°34'2 2.0
2014-Jul-15 12:33N 27°39' W 082°35'6 5.6
2014-Jul-15 11:33N 27°37' W 082°41'2 2.1
2014-Jul-15 10:34N 27°37' W 082°43'  

Dump ship's entire track history